Time;durP1;ratioP1;P1;durP2;ratioP2;P2;SDS_P1;SDS_P2;PMS_P1;PMS_P2;Temp;Humidity;BMP_temperature;BMP_pressure;BME280_temperature;BME280_humidity;BME280_pressure;Samples;Min_cycle;Max_cycle;Signal;HPM_P1;HPM_P2
2023/09/15 00:01:27;;;;;;;270.90;263.10;;;;;;;;;;5044828;28;20186;-93
2023/09/15 00:03:53;;;;;;;280.63;272.30;;;;;;;;;;5061656;28;20219;-92
2023/09/15 00:06:19;;;;;;;280.00;271.73;;;;;;;;;;5069290;28;20180;-93
2023/09/15 00:08:45;;;;;;;269.07;261.27;;;;;;;;;;5064769;28;20181;-92
2023/09/15 00:11:15;;;;;;;265.53;257.63;;;;;;;;;;5031222;28;20745;-91
2023/09/15 00:13:41;;;;;;;257.43;249.90;;;;;;;;;;5061794;28;20319;-93
2023/09/15 00:16:08;;;;;;;265.30;257.53;;;;;;;;;;5067133;28;20195;-92
2023/09/15 00:18:35;;;;;;;277.87;269.63;;;;;;;;;;5048695;28;20196;-92
2023/09/15 00:21:01;;;;;;;280.83;272.57;;;;;;;;;;5067382;28;20205;-93
2023/09/15 00:23:28;;;;;;;291.47;282.97;;;;;;;;;;5066943;28;20223;-92
2023/09/15 00:25:54;;;;;;;295.03;286.50;;;;;;;;;;5066577;28;20188;-93
2023/09/15 00:28:21;;;;;;;290.73;281.93;;;;;;;;;;5064240;28;20174;-93
2023/09/15 00:30:50;;;;;;;277.03;268.67;;;;;;;;;;5066711;28;20182;-92
2023/09/15 00:33:16;;;;;;;272.93;265.07;;;;;;;;;;5049146;28;20240;-92
2023/09/15 00:35:42;;;;;;;259.73;251.93;;;;;;;;;;5077017;28;20190;-93
2023/09/15 00:38:09;;;;;;;258.43;250.90;;;;;;;;;;5064476;28;20190;-92
2023/09/15 00:40:35;;;;;;;235.73;228.90;;;;;;;;;;5061881;28;20184;-92
2023/09/15 00:43:01;;;;;;;224.40;217.80;;;;;;;;;;5066097;28;20212;-93
2023/09/15 00:45:27;;;;;;;248.77;241.27;;;;;;;;;;5066683;28;20218;-91
2023/09/15 00:47:57;;;;;;;254.40;246.90;;;;;;;;;;5066191;28;20192;-92
2023/09/15 00:50:25;;;;;;;212.23;205.97;;;;;;;;;;5066395;28;20183;-92
2023/09/15 00:52:58;;;;;;;201.33;195.33;;;;;;;;;;5053376;28;20234;-92
2023/09/15 00:55:25;;;;;;;199.07;193.20;;;;;;;;;;5031774;28;20203;-93
2023/09/15 00:57:52;;;;;;;183.13;177.63;;;;;;;;;;5033502;28;20199;-93
2023/09/15 01:00:19;;;;;;;184.53;178.77;;;;;;;;;;5064953;28;20262;-92
2023/09/15 01:02:46;;;;;;;184.90;179.20;;;;;;;;;;5064641;28;20247;-93
2023/09/15 01:05:20;;;;;;;184.50;178.87;;;;;;;;;;5064100;28;20198;-93
2023/09/15 01:07:48;;;;;;;182.93;177.27;;;;;;;;;;5064235;28;20278;-92
2023/09/15 01:10:14;;;;;;;185.37;179.77;;;;;;;;;;5064243;28;20180;-94
2023/09/15 01:12:43;;;;;;;183.07;177.40;;;;;;;;;;5064165;28;20746;-93
2023/09/15 01:15:10;;;;;;;188.83;183.03;;;;;;;;;;5046594;28;20207;-93
2023/09/15 01:17:56;;;;;;;182.40;177.00;;;;;;;;;;5065883;28;20188;-92
2023/09/15 01:20:40;;;;;;;173.93;168.67;;;;;;;;;;5024819;28;20266;-92
2023/09/15 01:23:15;;;;;;;171.50;166.30;;;;;;;;;;5072636;28;20215;-92
2023/09/15 01:25:45;;;;;;;164.47;159.47;;;;;;;;;;5058382;28;20252;-93
2023/09/15 01:28:29;;;;;;;180.33;174.63;;;;;;;;;;5064976;28;20182;-93
2023/09/15 01:30:56;;;;;;;184.47;179.03;;;;;;;;;;5065891;28;20184;-92
2023/09/15 01:33:24;;;;;;;175.30;170.07;;;;;;;;;;5062151;28;20216;-92
2023/09/15 01:35:52;;;;;;;193.43;187.53;;;;;;;;;;5064913;28;20208;-92
2023/09/15 01:38:18;;;;;;;184.60;178.97;;;;;;;;;;5037449;28;20201;-92
2023/09/15 01:40:44;;;;;;;190.47;184.63;;;;;;;;;;5044767;28;20186;-91
2023/09/15 01:43:10;;;;;;;195.13;189.27;;;;;;;;;;5044365;28;20216;-92
2023/09/15 01:45:36;;;;;;;181.23;175.70;;;;;;;;;;5064308;28;20514;-92
2023/09/15 01:48:02;;;;;;;194.13;188.13;;;;;;;;;;5071230;28;20236;-92
2023/09/15 01:50:29;;;;;;;189.23;183.40;;;;;;;;;;5080034;28;20207;-93
2023/09/15 01:52:55;;;;;;;190.80;185.00;;;;;;;;;;5045103;28;20597;-92
2023/09/15 01:55:22;;;;;;;187.53;181.90;;;;;;;;;;5044175;28;20206;-92
2023/09/15 01:57:48;;;;;;;187.17;181.50;;;;;;;;;;5058109;28;20264;-92
2023/09/15 02:00:14;;;;;;;176.43;171.03;;;;;;;;;;5074410;28;20190;-93
2023/09/15 02:02:40;;;;;;;173.97;168.73;;;;;;;;;;5082141;28;20203;-92
2023/09/15 02:05:06;;;;;;;194.13;187.63;;;;;;;;;;5039084;28;20239;-92
2023/09/15 02:07:32;;;;;;;183.30;177.60;;;;;;;;;;5077788;28;20188;-92
2023/09/15 02:09:58;;;;;;;181.63;175.90;;;;;;;;;;5087998;28;20232;-92
2023/09/15 02:12:24;;;;;;;176.33;171.07;;;;;;;;;;5100559;22;22469;-94
2023/09/15 02:14:50;;;;;;;177.93;172.30;;;;;;;;;;5073749;28;20213;-93
2023/09/15 02:17:16;;;;;;;175.43;170.13;;;;;;;;;;5059992;28;20278;-93
2023/09/15 02:19:43;;;;;;;169.83;164.53;;;;;;;;;;5045255;28;20645;-93
2023/09/15 02:22:09;;;;;;;170.37;165.20;;;;;;;;;;5044733;28;20223;-93
2023/09/15 02:24:35;;;;;;;168.87;163.77;;;;;;;;;;5027666;28;20205;-92
2023/09/15 02:27:01;;;;;;;166.17;161.13;;;;;;;;;;5042898;28;20173;-92
2023/09/15 02:29:27;;;;;;;173.60;168.33;;;;;;;;;;5054487;28;20201;-92
2023/09/15 02:31:54;;;;;;;178.40;173.13;;;;;;;;;;5050576;28;20186;-92
2023/09/15 02:34:20;;;;;;;159.47;154.50;;;;;;;;;;5059799;28;20250;-91
2023/09/15 02:36:46;;;;;;;171.60;166.40;;;;;;;;;;5049372;28;20185;-92
2023/09/15 02:39:13;;;;;;;174.07;168.77;;;;;;;;;;5051196;28;20292;-91
2023/09/15 02:41:39;;;;;;;162.17;157.33;;;;;;;;;;5057893;28;20198;-91
2023/09/15 02:44:05;;;;;;;172.00;166.73;;;;;;;;;;5063694;28;20214;-92
2023/09/15 02:46:31;;;;;;;163.80;158.70;;;;;;;;;;5055503;28;20191;-92
2023/09/15 02:48:57;;;;;;;175.63;170.17;;;;;;;;;;5046137;28;20212;-92
2023/09/15 02:51:23;;;;;;;170.87;165.67;;;;;;;;;;5058484;28;20189;-92
2023/09/15 02:53:49;;;;;;;155.33;149.97;;;;;;;;;;5064308;28;20201;-93
2023/09/15 02:56:15;;;;;;;170.70;165.47;;;;;;;;;;5064680;28;20221;-93
2023/09/15 02:58:42;;;;;;;151.90;147.03;;;;;;;;;;5060492;28;20187;-93
2023/09/15 03:01:11;;;;;;;143.90;139.40;;;;;;;;;;5044418;28;20181;-91
2023/09/15 03:03:37;;;;;;;139.93;135.60;;;;;;;;;;5051595;28;20648;-93
2023/09/15 03:06:04;;;;;;;144.67;140.20;;;;;;;;;;5043626;28;20239;-92
2023/09/15 03:08:30;;;;;;;155.47;150.57;;;;;;;;;;5043267;28;20185;-92
2023/09/15 03:10:56;;;;;;;160.83;155.83;;;;;;;;;;5054249;28;20260;-91
2023/09/15 03:13:23;;;;;;;164.53;159.53;;;;;;;;;;5063591;28;20321;-92
2023/09/15 03:15:49;;;;;;;158.53;153.73;;;;;;;;;;5050395;28;20189;-92
2023/09/15 03:18:15;;;;;;;153.23;148.30;;;;;;;;;;5042764;28;20295;-92
2023/09/15 03:20:41;;;;;;;150.33;145.17;;;;;;;;;;5064419;28;20191;-92
2023/09/15 03:23:07;;;;;;;157.13;152.13;;;;;;;;;;5045654;28;20235;-92
2023/09/15 03:25:33;;;;;;;153.80;148.97;;;;;;;;;;5058458;28;20184;-91
2023/09/15 03:27:59;;;;;;;148.93;144.27;;;;;;;;;;5058860;28;20325;-92
2023/09/15 03:30:25;;;;;;;150.50;145.80;;;;;;;;;;5055778;28;20207;-92
2023/09/15 03:32:51;;;;;;;150.90;146.10;;;;;;;;;;5043712;28;20192;-91
2023/09/15 03:35:17;;;;;;;140.03;135.40;;;;;;;;;;5044585;28;20280;-92
2023/09/15 03:37:43;;;;;;;140.03;135.63;;;;;;;;;;5044856;28;20547;-92
2023/09/15 03:40:11;;;;;;;135.97;131.63;;;;;;;;;;5058641;28;20242;-92
2023/09/15 03:42:37;;;;;;;135.53;130.80;;;;;;;;;;5055174;28;20212;-90
2023/09/15 03:45:03;;;;;;;136.67;132.30;;;;;;;;;;5061501;28;20279;-90
2023/09/15 03:47:33;;;;;;;135.90;131.47;;;;;;;;;;5057385;28;20254;-93
2023/09/15 03:49:59;;;;;;;147.13;142.53;;;;;;;;;;5053678;28;20184;-95
2023/09/15 03:52:25;;;;;;;144.33;139.73;;;;;;;;;;5059298;28;20218;-94
2023/09/15 03:54:51;;;;;;;131.67;127.57;;;;;;;;;;5068317;28;20261;-93
2023/09/15 03:57:17;;;;;;;125.13;121.07;;;;;;;;;;5041647;28;20259;-93
2023/09/15 03:59:43;;;;;;;119.73;115.90;;;;;;;;;;5047760;28;20180;-92
2023/09/15 04:02:09;;;;;;;115.80;111.83;;;;;;;;;;5036812;28;20307;-94
2023/09/15 04:04:35;;;;;;;115.07;111.33;;;;;;;;;;5032390;28;20262;-94
2023/09/15 04:07:01;;;;;;;105.23;101.50;;;;;;;;;;5068100;28;20991;-93
2023/09/15 04:09:30;;;;;;;114.63;110.83;;;;;;;;;;5041513;28;20175;-93
2023/09/15 04:11:57;;;;;;;112.53;108.77;;;;;;;;;;5045275;28;20199;-95
2023/09/15 04:14:23;;;;;;;114.27;110.53;;;;;;;;;;5050832;28;20227;-93
2023/09/15 04:16:49;;;;;;;109.73;106.13;;;;;;;;;;5030317;28;20262;-95
2023/09/15 04:19:15;;;;;;;110.07;106.20;;;;;;;;;;5069010;28;20258;-95
2023/09/15 04:21:42;;;;;;;111.07;107.43;;;;;;;;;;5059000;28;20176;-95
2023/09/15 04:24:08;;;;;;;102.83;99.23;;;;;;;;;;5052671;28;20204;-92
2023/09/15 04:26:35;;;;;;;114.50;110.60;;;;;;;;;;5070781;28;20255;-94
2023/09/15 04:29:01;;;;;;;110.73;107.13;;;;;;;;;;5066829;28;20204;-94
2023/09/15 04:31:30;;;;;;;108.73;105.13;;;;;;;;;;5052768;28;20225;-94
2023/09/15 04:34:05;;;;;;;105.07;101.63;;;;;;;;;;5069451;28;20204;-95
2023/09/15 04:36:32;;;;;;;110.20;106.33;;;;;;;;;;5059269;28;20192;-94
2023/09/15 04:38:58;;;;;;;102.33;98.60;;;;;;;;;;5033521;28;20196;-94
2023/09/15 04:41:32;;;;;;;110.50;106.50;;;;;;;;;;5052562;28;20194;-94
2023/09/15 04:44:24;;;;;;;103.90;100.20;;;;;;;;;;5050162;28;20212;-94
2023/09/15 04:46:57;;;;;;;100.60;97.17;;;;;;;;;;5053598;28;20184;-94
2023/09/15 04:49:24;;;;;;;102.33;98.90;;;;;;;;;;5066881;28;20302;-93
2023/09/15 04:51:50;;;;;;;104.03;100.47;;;;;;;;;;5029875;28;20239;-94
2023/09/15 04:54:16;;;;;;;100.23;96.70;;;;;;;;;;5029354;28;20215;-93
2023/09/15 04:56:42;;;;;;;109.93;106.03;;;;;;;;;;5059870;28;20210;-92
2023/09/15 04:59:15;;;;;;;106.80;103.20;;;;;;;;;;5068919;28;20202;-92
2023/09/15 05:01:43;;;;;;;111.83;108.20;;;;;;;;;;5045189;28;20199;-92
2023/09/15 05:04:23;;;;;;;113.57;109.87;;;;;;;;;;5050427;28;20208;-94
2023/09/15 05:06:49;;;;;;;108.10;104.27;;;;;;;;;;5057944;28;20177;-93
2023/09/15 05:09:20;;;;;;;111.47;107.77;;;;;;;;;;5063799;28;20191;-94
2023/09/15 05:11:46;;;;;;;107.77;104.27;;;;;;;;;;5064672;28;20210;-95
2023/09/15 05:14:13;;;;;;;102.00;98.53;;;;;;;;;;5032048;28;20235;-96
2023/09/15 05:16:39;;;;;;;114.27;110.10;;;;;;;;;;5064213;28;20200;-94
2023/09/15 05:19:05;;;;;;;114.23;110.53;;;;;;;;;;5055951;28;20219;-87
2023/09/15 05:21:31;;;;;;;111.67;107.80;;;;;;;;;;5033740;28;20221;-87
2023/09/15 05:23:57;;;;;;;116.03;111.90;;;;;;;;;;5019819;28;20209;-88
2023/09/15 05:26:23;;;;;;;120.07;116.07;;;;;;;;;;5017446;28;20195;-88
2023/09/15 05:28:49;;;;;;;117.40;113.63;;;;;;;;;;5034208;28;20195;-89
2023/09/15 05:31:17;;;;;;;119.67;115.50;;;;;;;;;;5037969;28;20227;-89
2023/09/15 05:33:43;;;;;;;118.33;113.87;;;;;;;;;;5035772;28;20234;-89
2023/09/15 05:36:09;;;;;;;117.47;113.27;;;;;;;;;;5037916;28;20191;-89
2023/09/15 05:38:35;;;;;;;109.93;106.23;;;;;;;;;;5041448;28;20210;-88
2023/09/15 05:41:03;;;;;;;114.23;110.37;;;;;;;;;;5036566;28;20199;-88
2023/09/15 05:43:29;;;;;;;122.00;117.63;;;;;;;;;;5034026;28;20219;-90
2023/09/15 05:45:56;;;;;;;127.30;122.50;;;;;;;;;;5018654;28;20192;-89
2023/09/15 05:48:26;;;;;;;126.20;121.83;;;;;;;;;;5035210;28;20185;-90
2023/09/15 05:50:52;;;;;;;119.07;115.00;;;;;;;;;;5031734;28;20184;-87
2023/09/15 05:53:19;;;;;;;127.53;123.20;;;;;;;;;;5040669;28;20638;-88
2023/09/15 05:55:45;;;;;;;123.60;119.33;;;;;;;;;;5037951;28;20186;-91
2023/09/15 05:58:11;;;;;;;122.87;118.50;;;;;;;;;;5035153;28;20196;-87
2023/09/15 06:00:37;;;;;;;124.20;119.83;;;;;;;;;;5034061;28;20196;-87
2023/09/15 06:03:03;;;;;;;124.40;120.43;;;;;;;;;;5041209;28;20347;-88
2023/09/15 06:05:29;;;;;;;117.70;113.60;;;;;;;;;;5020266;28;20195;-88
2023/09/15 06:07:55;;;;;;;127.23;123.20;;;;;;;;;;5048440;28;20188;-88
2023/09/15 06:10:24;;;;;;;134.30;129.70;;;;;;;;;;5057322;28;20207;-94
2023/09/15 06:12:51;;;;;;;124.83;120.70;;;;;;;;;;5059105;22;20199;-92
2023/09/15 06:15:17;;;;;;;130.00;125.13;;;;;;;;;;5008246;28;20201;-94
2023/09/15 06:17:43;;;;;;;125.27;121.27;;;;;;;;;;5007742;28;20198;-94
2023/09/15 06:20:09;;;;;;;133.30;128.93;;;;;;;;;;5030776;28;20190;-94
2023/09/15 06:22:35;;;;;;;133.73;129.40;;;;;;;;;;5021991;28;20208;-94
2023/09/15 06:25:02;;;;;;;127.70;123.60;;;;;;;;;;5031285;28;20204;-93
2023/09/15 06:27:29;;;;;;;125.83;121.73;;;;;;;;;;5047771;28;20180;-94
2023/09/15 06:29:55;;;;;;;129.17;125.17;;;;;;;;;;5025549;28;20192;-93
2023/09/15 06:32:22;;;;;;;137.97;133.53;;;;;;;;;;5037034;28;20260;-93
2023/09/15 06:34:48;;;;;;;134.73;130.03;;;;;;;;;;5023971;28;20218;-94
2023/09/15 06:37:14;;;;;;;146.83;142.17;;;;;;;;;;5023814;28;20827;-95
2023/09/15 06:39:40;;;;;;;144.43;139.63;;;;;;;;;;5027715;28;20289;-93
2023/09/15 06:42:07;;;;;;;137.90;133.50;;;;;;;;;;5023709;28;20205;-93
2023/09/15 06:44:36;;;;;;;132.70;128.40;;;;;;;;;;5016730;28;20198;-94
2023/09/15 06:47:03;;;;;;;141.20;136.80;;;;;;;;;;5027270;28;20201;-94
2023/09/15 06:49:31;;;;;;;139.03;134.50;;;;;;;;;;5009202;28;20208;-93
2023/09/15 06:51:57;;;;;;;144.73;140.23;;;;;;;;;;5027607;28;20189;-95
2023/09/15 06:54:23;;;;;;;151.60;146.83;;;;;;;;;;5038182;28;20209;-94
2023/09/15 06:56:52;;;;;;;142.87;138.37;;;;;;;;;;5032536;28;20189;-94
2023/09/15 06:59:20;;;;;;;141.83;137.20;;;;;;;;;;5036686;28;20235;-92
2023/09/15 07:01:46;;;;;;;145.67;141.03;;;;;;;;;;5022396;28;20186;-93
2023/09/15 07:04:13;;;;;;;148.97;144.20;;;;;;;;;;5009221;28;20232;-91
2023/09/15 07:06:39;;;;;;;147.93;143.33;;;;;;;;;;5009721;28;20197;-92
2023/09/15 07:09:05;;;;;;;163.30;158.30;;;;;;;;;;5026427;28;20194;-92
2023/09/15 07:11:31;;;;;;;155.63;150.83;;;;;;;;;;5031406;28;20716;-93
2023/09/15 07:13:57;;;;;;;148.53;143.93;;;;;;;;;;5017570;28;20215;-95
2023/09/15 07:16:23;;;;;;;158.83;153.63;;;;;;;;;;5026401;28;20192;-93
2023/09/15 07:18:50;;;;;;;167.40;162.30;;;;;;;;;;5005744;28;20211;-93
2023/09/15 07:21:16;;;;;;;164.07;158.90;;;;;;;;;;5008115;28;20181;-93
2023/09/15 07:23:42;;;;;;;189.87;184.20;;;;;;;;;;5009574;28;20699;-93
2023/09/15 07:26:09;;;;;;;200.77;194.77;;;;;;;;;;4991854;28;20212;-92
2023/09/15 07:28:35;;;;;;;205.67;199.43;;;;;;;;;;5023204;28;20205;-93
2023/09/15 07:31:06;;;;;;;213.63;207.10;;;;;;;;;;5026502;28;20238;-93
2023/09/15 07:33:32;;;;;;;211.97;205.43;;;;;;;;;;5029303;28;20193;-93
2023/09/15 07:36:03;;;;;;;210.43;204.23;;;;;;;;;;5014424;28;20280;-95
2023/09/15 07:38:29;;;;;;;207.20;201.03;;;;;;;;;;5017682;28;20215;-92
2023/09/15 07:40:56;;;;;;;225.97;219.23;;;;;;;;;;5027225;28;20280;-93
2023/09/15 07:43:22;;;;;;;219.07;212.43;;;;;;;;;;5009495;28;20332;-91
2023/09/15 07:45:48;;;;;;;212.47;205.83;;;;;;;;;;5028522;28;20187;-94
2023/09/15 07:48:15;;;;;;;203.50;197.47;;;;;;;;;;5000113;28;20199;-93
2023/09/15 07:50:41;;;;;;;253.97;246.53;;;;;;;;;;5029345;28;20187;-93
2023/09/15 07:53:07;;;;;;;247.07;239.67;;;;;;;;;;5030669;28;20194;-93
2023/09/15 07:55:33;;;;;;;265.90;258.23;;;;;;;;;;5042046;28;20189;-94
2023/09/15 07:57:59;;;;;;;280.93;272.60;;;;;;;;;;5047573;28;20208;-93
2023/09/15 08:00:25;;;;;;;297.10;288.37;;;;;;;;;;5031793;28;20189;-95
2023/09/15 08:02:51;;;;;;;300.47;291.60;;;;;;;;;;5033164;28;20323;-92
2023/09/15 08:05:17;;;;;;;322.70;313.10;;;;;;;;;;5026387;28;20203;-92
2023/09/15 08:07:44;;;;;;;309.90;300.83;;;;;;;;;;5020172;28;20225;-92
2023/09/15 08:10:12;;;;;;;356.37;345.57;;;;;;;;;;5026212;28;20247;-95
2023/09/15 08:12:38;;;;;;;366.90;355.73;;;;;;;;;;5009563;28;20193;-92
2023/09/15 08:15:07;;;;;;;349.47;339.00;;;;;;;;;;5026161;28;20269;-93
2023/09/15 08:17:33;;;;;;;376.40;364.67;;;;;;;;;;5033245;28;20189;-93
2023/09/15 08:20:00;;;;;;;369.00;357.53;;;;;;;;;;5024168;28;20189;-93
2023/09/15 08:22:27;;;;;;;375.03;363.07;;;;;;;;;;5007242;28;20216;-95
2023/09/15 08:24:53;;;;;;;386.73;374.50;;;;;;;;;;5008777;28;20272;-94
2023/09/15 08:27:19;;;;;;;375.67;364.03;;;;;;;;;;5027726;28;20185;-93
2023/09/15 08:29:45;;;;;;;431.33;417.70;;;;;;;;;;5035443;28;20206;-92
2023/09/15 08:32:13;;;;;;;428.40;414.80;;;;;;;;;;5024760;28;20212;-94
2023/09/15 08:34:41;;;;;;;416.37;403.23;;;;;;;;;;5026319;28;20252;-93
2023/09/15 08:37:07;;;;;;;368.17;356.05;;;;;;;;;;5016905;28;20191;-95
2023/09/15 08:39:33;;;;;;;302.97;294.10;;;;;;;;;;5028719;28;20298;-94
2023/09/15 08:42:04;;;;;;;300.70;291.90;;;;;;;;;;5012737;28;20335;-94
2023/09/15 08:44:31;;;;;;;274.65;266.65;;;;;;;;;;5029778;28;20271;-94
2023/09/15 08:46:58;;;;;;;297.40;288.77;;;;;;;;;;5031341;28;20189;-94
2023/09/15 08:49:24;;;;;;;311.30;302.13;;;;;;;;;;5021614;28;20241;-93
2023/09/15 08:51:51;;;;;;;333.63;323.58;;;;;;;;;;5010682;28;20222;-93
2023/09/15 08:54:18;;;;;;;343.63;333.33;;;;;;;;;;5008665;28;20200;-93
2023/09/15 08:56:44;;;;;;;356.58;345.83;;;;;;;;;;5027162;28;20240;-94
2023/09/15 08:59:11;;;;;;;394.65;382.38;;;;;;;;;;5026831;28;20881;-93
2023/09/15 09:01:37;;;;;;;403.10;390.67;;;;;;;;;;5009150;28;20227;-92
2023/09/15 09:04:03;;;;;;;420.67;407.88;;;;;;;;;;5024340;28;20189;-93
2023/09/15 09:06:34;;;;;;;430.40;417.17;;;;;;;;;;5026890;28;20284;-93
2023/09/15 09:09:00;;;;;;;466.88;452.25;;;;;;;;;;5030175;28;20228;-94
2023/09/15 09:11:27;;;;;;;492.42;476.58;;;;;;;;;;5034374;28;20201;-93
2023/09/15 09:13:55;;;;;;;470.48;455.33;;;;;;;;;;5035373;28;20188;-93
2023/09/15 09:16:21;;;;;;;522.67;505.20;;;;;;;;;;5017919;28;20189;-94
2023/09/15 09:19:03;;;;;;;534.40;516.72;;;;;;;;;;5026982;28;20213;-93
2023/09/15 09:21:30;;;;;;;477.73;462.63;;;;;;;;;;5016464;28;20228;-94
2023/09/15 09:23:56;;;;;;;520.40;503.40;;;;;;;;;;5017960;28;20228;-92
2023/09/15 09:26:22;;;;;;;480.80;465.42;;;;;;;;;;5008439;28;20193;-92
2023/09/15 09:28:48;;;;;;;467.55;452.55;;;;;;;;;;5008193;28;20273;-94
2023/09/15 09:31:15;;;;;;;509.30;491.33;;;;;;;;;;5020584;28;20257;-92
2023/09/15 09:33:41;;;;;;;505.20;488.60;;;;;;;;;;5036597;28;20297;-96
2023/09/15 09:36:15;;;;;;;465.70;450.90;;;;;;;;;;5037199;28;20213;-92
2023/09/15 09:38:42;;;;;;;1223.40;716.40;;;;;;;;;;5031239;28;20326;-92
2023/09/15 09:41:25;;;;;;;1999.90;999.90;;;;;;;;;;5034263;28;20193;-92
2023/09/15 09:43:55;;;;;;;1999.90;999.90;;;;;;;;;;5042357;28;20665;-93
2023/09/15 09:46:21;;;;;;;1999.90;999.90;;;;;;;;;;5024452;28;20177;-94
2023/09/15 09:48:48;;;;;;;1999.90;999.90;;;;;;;;;;5020977;28;20209;-93
2023/09/15 09:51:14;;;;;;;1999.90;999.90;;;;;;;;;;5025495;28;20192;-93
2023/09/15 09:53:40;;;;;;;1999.90;999.90;;;;;;;;;;5038463;28;20209;-94
2023/09/15 09:56:07;;;;;;;1999.90;999.90;;;;;;;;;;5022253;28;20216;-92
2023/09/15 09:58:34;;;;;;;1999.90;999.90;;;;;;;;;;5021569;28;20412;-92
2023/09/15 10:01:06;;;;;;;1999.90;999.90;;;;;;;;;;5028408;28;20185;-93
2023/09/15 10:03:33;;;;;;;1999.90;999.90;;;;;;;;;;5041939;28;20222;-92
2023/09/15 10:05:59;;;;;;;1999.90;999.90;;;;;;;;;;5010744;28;20211;-93
2023/09/15 10:08:26;;;;;;;1999.90;999.90;;;;;;;;;;5022178;28;20193;-92
2023/09/15 10:10:53;;;;;;;1999.90;999.90;;;;;;;;;;5022569;28;20255;-93
2023/09/15 10:13:19;;;;;;;1999.90;999.90;;;;;;;;;;5022341;28;20618;-92
2023/09/15 10:15:47;;;;;;;1999.90;999.90;;;;;;;;;;5022131;28;20169;-93
2023/09/15 10:18:15;;;;;;;1999.90;999.90;;;;;;;;;;5020512;28;20216;-92
2023/09/15 10:20:44;;;;;;;1999.90;999.90;;;;;;;;;;5032483;28;20187;-93
2023/09/15 10:23:13;;;;;;;1999.90;999.90;;;;;;;;;;5032205;28;20205;-95
2023/09/15 10:25:48;;;;;;;1999.90;999.90;;;;;;;;;;5004270;28;20167;-93
2023/09/15 10:28:17;;;;;;;1999.90;999.90;;;;;;;;;;5019801;28;20705;-94
2023/09/15 10:30:44;;;;;;;1999.90;999.90;;;;;;;;;;5028539;28;20237;-93
2023/09/15 10:33:10;;;;;;;1999.90;999.90;;;;;;;;;;5019687;28;20185;-93
2023/09/15 10:35:45;;;;;;;1999.90;999.90;;;;;;;;;;5032916;28;20235;-92
2023/09/15 10:38:11;;;;;;;1999.90;999.90;;;;;;;;;;5032818;28;20212;-93
2023/09/15 10:40:46;;;;;;;1999.90;999.90;;;;;;;;;;5041811;28;20181;-94
2023/09/15 10:43:13;;;;;;;1999.90;999.90;;;;;;;;;;5024584;28;20217;-93
2023/09/15 10:45:39;;;;;;;1999.90;999.90;;;;;;;;;;5004670;28;20186;-94
2023/09/15 10:48:05;;;;;;;1999.90;999.90;;;;;;;;;;5023435;28;20220;-92
2023/09/15 10:50:39;;;;;;;1999.90;999.90;;;;;;;;;;5004698;28;20189;-93
2023/09/15 10:53:12;;;;;;;1999.90;999.90;;;;;;;;;;5020513;28;20181;-94
2023/09/15 10:55:40;;;;;;;1999.90;999.90;;;;;;;;;;5009792;28;20176;-93
2023/09/15 10:58:09;;;;;;;1999.90;999.90;;;;;;;;;;5022901;28;20257;-93
2023/09/15 11:00:35;;;;;;;1999.90;999.90;;;;;;;;;;5037632;28;20186;-94
2023/09/15 11:03:01;;;;;;;1999.90;999.90;;;;;;;;;;5027918;28;20249;-92
2023/09/15 11:05:28;;;;;;;1999.90;999.90;;;;;;;;;;5021311;28;20179;-92
2023/09/15 11:07:56;;;;;;;1999.90;999.90;;;;;;;;;;5018741;28;20297;-92
2023/09/15 11:10:26;;;;;;;1999.90;999.90;;;;;;;;;;5001458;28;20178;-93
2023/09/15 11:12:58;;;;;;;1999.90;999.90;;;;;;;;;;5019595;28;20165;-93
2023/09/15 11:15:24;;;;;;;1999.90;999.90;;;;;;;;;;5022063;28;20224;-93
2023/09/15 11:17:51;;;;;;;1999.90;999.90;;;;;;;;;;5019130;28;20201;-94
2023/09/15 11:20:17;;;;;;;1999.90;999.90;;;;;;;;;;5001626;28;20554;-93
2023/09/15 11:22:44;;;;;;;1999.90;999.90;;;;;;;;;;5014831;28;20209;-94
2023/09/15 11:25:10;;;;;;;1999.90;999.90;;;;;;;;;;5013821;28;20189;-92
2023/09/15 11:27:36;;;;;;;1999.90;999.90;;;;;;;;;;5017959;28;20805;-93
2023/09/15 11:30:05;;;;;;;1999.90;999.90;;;;;;;;;;5025644;28;20184;-93
2023/09/15 11:32:35;;;;;;;1999.90;999.90;;;;;;;;;;5032160;28;20434;-93
2023/09/15 11:35:09;;;;;;;1999.90;999.90;;;;;;;;;;5010552;28;20214;-93
2023/09/15 11:37:35;;;;;;;1999.90;999.90;;;;;;;;;;5024108;28;20231;-92
2023/09/15 11:40:01;;;;;;;1999.90;999.90;;;;;;;;;;5039675;28;20180;-93
2023/09/15 11:42:27;;;;;;;1999.90;999.90;;;;;;;;;;5019724;28;20197;-93
2023/09/15 11:44:55;;;;;;;1999.90;999.90;;;;;;;;;;4997701;28;20174;-93
2023/09/15 11:47:21;;;;;;;1999.90;999.90;;;;;;;;;;5034612;28;20179;-92
2023/09/15 11:49:48;;;;;;;1999.90;999.90;;;;;;;;;;5038923;28;20216;-93
2023/09/15 11:52:14;;;;;;;1999.90;999.90;;;;;;;;;;5006042;28;20189;-94
2023/09/15 11:54:44;;;;;;;1999.90;999.90;;;;;;;;;;5018379;28;20189;-91
2023/09/15 11:57:12;;;;;;;1999.90;999.90;;;;;;;;;;5024120;28;20163;-92
2023/09/15 11:59:38;;;;;;;1999.90;999.90;;;;;;;;;;5007592;28;20213;-94
2023/09/15 12:02:05;;;;;;;1999.90;999.90;;;;;;;;;;5012412;28;20214;-94
2023/09/15 12:04:31;;;;;;;1999.90;999.90;;;;;;;;;;5028671;28;20271;-94
2023/09/15 12:07:05;;;;;;;1999.90;999.90;;;;;;;;;;5041412;28;20210;-93
2023/09/15 12:09:31;;;;;;;1999.90;999.90;;;;;;;;;;5038574;28;20223;-92
2023/09/15 12:11:57;;;;;;;1999.90;999.90;;;;;;;;;;5014589;28;20186;-93
2023/09/15 12:14:26;;;;;;;1999.90;999.90;;;;;;;;;;5042070;28;20225;-91
2023/09/15 12:16:52;;;;;;;1999.90;999.90;;;;;;;;;;5007148;28;20181;-92
2023/09/15 12:19:18;;;;;;;1999.90;999.90;;;;;;;;;;5006829;28;20699;-94
2023/09/15 12:21:55;;;;;;;1999.90;999.90;;;;;;;;;;5005815;28;20678;-94
2023/09/15 12:24:22;;;;;;;1999.90;999.90;;;;;;;;;;5040409;28;20185;-93
2023/09/15 12:26:51;;;;;;;1999.90;999.90;;;;;;;;;;5010212;28;20185;-94
2023/09/15 12:29:17;;;;;;;1999.90;999.90;;;;;;;;;;4999713;28;20491;-92
2023/09/15 12:31:44;;;;;;;1999.90;999.90;;;;;;;;;;5001416;28;20190;-93
2023/09/15 12:34:18;;;;;;;1999.90;999.90;;;;;;;;;;5015735;28;20277;-92
2023/09/15 12:36:45;;;;;;;1999.90;999.90;;;;;;;;;;5009205;28;20192;-92
2023/09/15 12:39:11;;;;;;;1999.90;999.90;;;;;;;;;;5020957;28;20194;-94
2023/09/15 12:41:37;;;;;;;1999.90;999.90;;;;;;;;;;5001439;28;20201;-92
2023/09/15 12:44:03;;;;;;;1999.90;999.90;;;;;;;;;;5011402;28;20213;-92
2023/09/15 12:46:36;;;;;;;1999.90;999.90;;;;;;;;;;5036234;28;20208;-94
2023/09/15 12:49:03;;;;;;;1999.90;999.90;;;;;;;;;;5014648;28;20686;-94
2023/09/15 12:51:30;;;;;;;1999.90;999.90;;;;;;;;;;5028349;28;20192;-93
2023/09/15 12:53:58;;;;;;;1999.90;999.90;;;;;;;;;;5009036;28;20195;-91
2023/09/15 12:56:25;;;;;;;1999.90;999.90;;;;;;;;;;5019664;28;20215;-96
2023/09/15 12:58:51;;;;;;;1999.90;999.90;;;;;;;;;;5036975;28;20202;-93
2023/09/15 13:01:17;;;;;;;1999.90;999.90;;;;;;;;;;5039366;28;20186;-92
2023/09/15 13:03:43;;;;;;;1999.90;999.90;;;;;;;;;;5021759;28;20214;-92
2023/09/15 13:06:09;;;;;;;1999.90;999.90;;;;;;;;;;5022276;28;20180;-94
2023/09/15 13:08:38;;;;;;;1999.90;999.90;;;;;;;;;;5021993;28;20300;-92
2023/09/15 13:11:04;;;;;;;1999.90;999.90;;;;;;;;;;5020278;28;20284;-93
2023/09/15 13:13:32;;;;;;;1999.90;999.90;;;;;;;;;;5020402;28;20216;-93
2023/09/15 13:15:58;;;;;;;1999.90;999.90;;;;;;;;;;5040422;28;20204;-92
2023/09/15 13:18:24;;;;;;;1999.90;999.90;;;;;;;;;;5036183;28;20216;-92
2023/09/15 13:20:51;;;;;;;1999.90;999.90;;;;;;;;;;5036751;28;20183;-93
2023/09/15 13:23:17;;;;;;;1999.90;999.90;;;;;;;;;;5034593;28;20204;-92
2023/09/15 13:25:43;;;;;;;1999.90;999.90;;;;;;;;;;5031920;28;20173;-93
2023/09/15 13:28:12;;;;;;;1999.90;999.90;;;;;;;;;;5045677;28;20196;-96
2023/09/15 13:30:51;;;;;;;1999.90;999.90;;;;;;;;;;5036255;28;20193;-96
2023/09/15 13:33:20;;;;;;;1999.90;999.90;;;;;;;;;;5037116;28;20180;-95
2023/09/15 13:35:52;;;;;;;1999.90;999.90;;;;;;;;;;5117936;22;20258;-96
2023/09/15 13:38:23;;;;;;;1999.90;999.90;;;;;;;;;;5048478;28;20251;-95
2023/09/15 13:41:02;;;;;;;1999.90;999.90;;;;;;;;;;5057843;28;20165;-95
2023/09/15 13:43:29;;;;;;;1999.90;999.90;;;;;;;;;;5087641;22;20311;-94
2023/09/15 13:45:55;;;;;;;1999.90;999.90;;;;;;;;;;5049526;28;20452;-94
2023/09/15 13:48:25;;;;;;;1999.90;999.90;;;;;;;;;;5061654;28;20181;-95
2023/09/15 13:50:51;;;;;;;1999.90;999.90;;;;;;;;;;5075358;28;20264;-95